sensor_id;sensor_type;location;lat;lon;timestamp;temperature;humidity
42979;DHT22;28616;44.746;19.678;2023-02-04T00:01:30;6.90;99.90
42979;DHT22;28616;44.746;19.678;2023-02-04T00:03:56;7.00;99.90
42979;DHT22;28616;44.746;19.678;2023-02-04T00:06:21;7.00;99.90
42979;DHT22;28616;44.746;19.678;2023-02-04T00:08:47;7.00;99.90
42979;DHT22;28616;44.746;19.678;2023-02-04T00:11:13;7.10;99.90
42979;DHT22;28616;44.746;19.678;2023-02-04T00:13:38;7.10;99.90
42979;DHT22;28616;44.746;19.678;2023-02-04T00:16:04;7.10;99.90
42979;DHT22;28616;44.746;19.678;2023-02-04T00:18:30;7.10;99.90
42979;DHT22;28616;44.746;19.678;2023-02-04T00:20:56;7.10;99.90
42979;DHT22;28616;44.746;19.678;2023-02-04T00:23:22;7.10;99.90
42979;DHT22;28616;44.746;19.678;2023-02-04T00:25:47;7.10;99.90
42979;DHT22;28616;44.746;19.678;2023-02-04T00:28:13;7.10;99.90
42979;DHT22;28616;44.746;19.678;2023-02-04T00:30:39;7.10;99.90
42979;DHT22;28616;44.746;19.678;2023-02-04T00:33:04;7.10;99.90
42979;DHT22;28616;44.746;19.678;2023-02-04T00:35:30;7.10;99.90
42979;DHT22;28616;44.746;19.678;2023-02-04T00:37:56;7.10;99.90
42979;DHT22;28616;44.746;19.678;2023-02-04T00:40:21;7.20;99.90
42979;DHT22;28616;44.746;19.678;2023-02-04T00:42:47;7.10;99.90
42979;DHT22;28616;44.746;19.678;2023-02-04T00:45:13;7.10;99.90
42979;DHT22;28616;44.746;19.678;2023-02-04T00:47:39;7.00;99.90
42979;DHT22;28616;44.746;19.678;2023-02-04T00:50:05;7.10;99.90
42979;DHT22;28616;44.746;19.678;2023-02-04T00:52:31;7.00;99.90
42979;DHT22;28616;44.746;19.678;2023-02-04T00:54:57;7.00;99.90
42979;DHT22;28616;44.746;19.678;2023-02-04T00:57:23;7.00;99.90
42979;DHT22;28616;44.746;19.678;2023-02-04T00:59:48;7.00;99.90
42979;DHT22;28616;44.746;19.678;2023-02-04T01:02:14;6.90;99.90
42979;DHT22;28616;44.746;19.678;2023-02-04T01:04:40;6.90;99.90
42979;DHT22;28616;44.746;19.678;2023-02-04T01:07:06;6.90;99.90
42979;DHT22;28616;44.746;19.678;2023-02-04T01:09:31;6.80;99.90
42979;DHT22;28616;44.746;19.678;2023-02-04T01:11:58;6.70;99.90
42979;DHT22;28616;44.746;19.678;2023-02-04T01:14:24;6.60;99.90
42979;DHT22;28616;44.746;19.678;2023-02-04T01:16:49;6.60;99.90
42979;DHT22;28616;44.746;19.678;2023-02-04T01:19:15;6.60;99.90
42979;DHT22;28616;44.746;19.678;2023-02-04T01:21:41;6.60;99.90
42979;DHT22;28616;44.746;19.678;2023-02-04T01:24:07;6.50;99.90
42979;DHT22;28616;44.746;19.678;2023-02-04T01:26:33;6.50;99.90
42979;DHT22;28616;44.746;19.678;2023-02-04T01:28:58;6.40;99.90
42979;DHT22;28616;44.746;19.678;2023-02-04T01:31:24;6.40;99.90
42979;DHT22;28616;44.746;19.678;2023-02-04T01:33:50;6.40;99.90
42979;DHT22;28616;44.746;19.678;2023-02-04T01:36:17;6.30;99.90
42979;DHT22;28616;44.746;19.678;2023-02-04T01:38:47;6.30;99.90
42979;DHT22;28616;44.746;19.678;2023-02-04T01:41:13;6.30;99.90
42979;DHT22;28616;44.746;19.678;2023-02-04T01:43:39;6.20;99.90
42979;DHT22;28616;44.746;19.678;2023-02-04T01:46:05;6.20;99.90
42979;DHT22;28616;44.746;19.678;2023-02-04T01:48:31;6.20;99.90
42979;DHT22;28616;44.746;19.678;2023-02-04T01:51:04;6.10;99.90
42979;DHT22;28616;44.746;19.678;2023-02-04T01:53:30;6.10;99.90
42979;DHT22;28616;44.746;19.678;2023-02-04T01:55:57;6.10;99.90
42979;DHT22;28616;44.746;19.678;2023-02-04T01:58:23;6.10;99.90
42979;DHT22;28616;44.746;19.678;2023-02-04T02:00:49;6.10;99.90
42979;DHT22;28616;44.746;19.678;2023-02-04T02:03:15;6.10;99.90
42979;DHT22;28616;44.746;19.678;2023-02-04T02:05:46;6.10;99.90
42979;DHT22;28616;44.746;19.678;2023-02-04T02:08:13;6.10;99.90
42979;DHT22;28616;44.746;19.678;2023-02-04T02:10:42;6.10;99.90
42979;DHT22;28616;44.746;19.678;2023-02-04T02:13:11;6.10;99.90
42979;DHT22;28616;44.746;19.678;2023-02-04T02:15:38;6.10;99.90
42979;DHT22;28616;44.746;19.678;2023-02-04T02:18:03;6.10;99.90
42979;DHT22;28616;44.746;19.678;2023-02-04T02:20:29;6.10;99.90
42979;DHT22;28616;44.746;19.678;2023-02-04T02:25:39;6.10;99.90
42979;DHT22;28616;44.746;19.678;2023-02-04T02:28:09;6.00;99.90
42979;DHT22;28616;44.746;19.678;2023-02-04T02:30:35;6.00;99.90
42979;DHT22;28616;44.746;19.678;2023-02-04T02:33:02;5.90;99.90
42979;DHT22;28616;44.746;19.678;2023-02-04T02:35:28;5.90;99.90
42979;DHT22;28616;44.746;19.678;2023-02-04T02:37:54;5.90;99.90
42979;DHT22;28616;44.746;19.678;2023-02-04T02:40:20;5.90;99.90
42979;DHT22;28616;44.746;19.678;2023-02-04T02:42:48;5.90;99.90
42979;DHT22;28616;44.746;19.678;2023-02-04T02:45:23;5.90;99.90
42979;DHT22;28616;44.746;19.678;2023-02-04T02:47:49;5.90;99.90
42979;DHT22;28616;44.746;19.678;2023-02-04T02:50:18;5.90;99.90
42979;DHT22;28616;44.746;19.678;2023-02-04T02:52:44;6.00;99.90
42979;DHT22;28616;44.746;19.678;2023-02-04T02:55:18;6.00;99.90
42979;DHT22;28616;44.746;19.678;2023-02-04T02:57:45;6.10;99.90
42979;DHT22;28616;44.746;19.678;2023-02-04T03:00:17;6.00;99.90
42979;DHT22;28616;44.746;19.678;2023-02-04T03:02:44;6.00;99.90
42979;DHT22;28616;44.746;19.678;2023-02-04T03:05:10;6.00;99.90
42979;DHT22;28616;44.746;19.678;2023-02-04T03:07:36;6.00;99.90
42979;DHT22;28616;44.746;19.678;2023-02-04T03:10:03;6.00;99.90
42979;DHT22;28616;44.746;19.678;2023-02-04T03:12:29;6.00;99.90
42979;DHT22;28616;44.746;19.678;2023-02-04T03:14:55;6.00;99.90
42979;DHT22;28616;44.746;19.678;2023-02-04T03:17:21;6.00;99.90
42979;DHT22;28616;44.746;19.678;2023-02-04T03:19:47;6.00;99.90
42979;DHT22;28616;44.746;19.678;2023-02-04T03:22:13;6.10;99.90
42979;DHT22;28616;44.746;19.678;2023-02-04T03:24:39;6.10;99.90
42979;DHT22;28616;44.746;19.678;2023-02-04T03:27:06;6.10;99.90
42979;DHT22;28616;44.746;19.678;2023-02-04T03:29:32;6.10;99.90
42979;DHT22;28616;44.746;19.678;2023-02-04T03:31:58;6.10;99.90
42979;DHT22;28616;44.746;19.678;2023-02-04T03:34:30;6.00;99.90
42979;DHT22;28616;44.746;19.678;2023-02-04T03:36:56;6.10;99.90
42979;DHT22;28616;44.746;19.678;2023-02-04T03:39:22;6.10;99.90
42979;DHT22;28616;44.746;19.678;2023-02-04T03:41:47;6.10;99.90
42979;DHT22;28616;44.746;19.678;2023-02-04T03:44:13;6.20;99.90
42979;DHT22;28616;44.746;19.678;2023-02-04T03:46:39;6.20;99.90
42979;DHT22;28616;44.746;19.678;2023-02-04T03:49:04;6.20;99.90
42979;DHT22;28616;44.746;19.678;2023-02-04T03:51:30;6.30;99.90
42979;DHT22;28616;44.746;19.678;2023-02-04T03:53:56;6.30;99.90
42979;DHT22;28616;44.746;19.678;2023-02-04T03:56:21;6.30;99.90
42979;DHT22;28616;44.746;19.678;2023-02-04T03:58:47;6.30;99.90
42979;DHT22;28616;44.746;19.678;2023-02-04T04:01:14;6.30;99.90
42979;DHT22;28616;44.746;19.678;2023-02-04T04:03:39;6.30;99.90
42979;DHT22;28616;44.746;19.678;2023-02-04T04:06:05;6.30;99.90
42979;DHT22;28616;44.746;19.678;2023-02-04T04:08:33;6.30;99.90
42979;DHT22;28616;44.746;19.678;2023-02-04T04:10:59;6.30;99.90
42979;DHT22;28616;44.746;19.678;2023-02-04T04:13:24;6.30;99.90
42979;DHT22;28616;44.746;19.678;2023-02-04T04:15:50;6.30;99.90
42979;DHT22;28616;44.746;19.678;2023-02-04T04:18:16;6.30;99.90
42979;DHT22;28616;44.746;19.678;2023-02-04T04:20:42;6.30;99.90
42979;DHT22;28616;44.746;19.678;2023-02-04T04:23:07;6.30;99.90
42979;DHT22;28616;44.746;19.678;2023-02-04T04:25:33;6.30;99.90
42979;DHT22;28616;44.746;19.678;2023-02-04T04:27:59;6.30;99.90
42979;DHT22;28616;44.746;19.678;2023-02-04T04:30:24;6.30;99.90
42979;DHT22;28616;44.746;19.678;2023-02-04T04:32:50;6.30;99.90
42979;DHT22;28616;44.746;19.678;2023-02-04T04:35:16;6.30;99.90
42979;DHT22;28616;44.746;19.678;2023-02-04T04:37:41;6.30;99.90
42979;DHT22;28616;44.746;19.678;2023-02-04T04:40:11;6.20;99.90
42979;DHT22;28616;44.746;19.678;2023-02-04T04:42:37;6.30;99.90
42979;DHT22;28616;44.746;19.678;2023-02-04T04:45:06;6.20;99.90
42979;DHT22;28616;44.746;19.678;2023-02-04T04:47:32;6.30;99.90
42979;DHT22;28616;44.746;19.678;2023-02-04T04:49:58;6.30;99.90
42979;DHT22;28616;44.746;19.678;2023-02-04T04:52:23;6.40;99.90
42979;DHT22;28616;44.746;19.678;2023-02-04T04:54:49;6.40;99.90
42979;DHT22;28616;44.746;19.678;2023-02-04T04:57:15;6.40;99.90
42979;DHT22;28616;44.746;19.678;2023-02-04T04:59:40;6.40;99.90
42979;DHT22;28616;44.746;19.678;2023-02-04T05:02:06;6.40;99.90
42979;DHT22;28616;44.746;19.678;2023-02-04T05:04:32;6.40;99.90
42979;DHT22;28616;44.746;19.678;2023-02-04T05:06:57;6.40;99.90
42979;DHT22;28616;44.746;19.678;2023-02-04T05:09:23;6.30;99.90
42979;DHT22;28616;44.746;19.678;2023-02-04T05:11:49;6.30;99.90
42979;DHT22;28616;44.746;19.678;2023-02-04T05:14:14;6.30;99.90
42979;DHT22;28616;44.746;19.678;2023-02-04T05:16:40;6.30;99.90
42979;DHT22;28616;44.746;19.678;2023-02-04T05:19:06;6.30;99.90
42979;DHT22;28616;44.746;19.678;2023-02-04T05:21:31;6.30;99.90
42979;DHT22;28616;44.746;19.678;2023-02-04T05:23:57;6.40;99.90
42979;DHT22;28616;44.746;19.678;2023-02-04T05:26:23;6.40;99.90
42979;DHT22;28616;44.746;19.678;2023-02-04T05:28:49;6.40;99.90
42979;DHT22;28616;44.746;19.678;2023-02-04T05:31:14;6.40;99.90
42979;DHT22;28616;44.746;19.678;2023-02-04T05:33:40;6.50;99.90
42979;DHT22;28616;44.746;19.678;2023-02-04T05:36:06;6.50;99.90
42979;DHT22;28616;44.746;19.678;2023-02-04T05:38:31;6.40;99.90
42979;DHT22;28616;44.746;19.678;2023-02-04T05:40:57;6.30;99.90
42979;DHT22;28616;44.746;19.678;2023-02-04T05:43:23;6.30;99.90
42979;DHT22;28616;44.746;19.678;2023-02-04T05:45:48;6.20;99.90
42979;DHT22;28616;44.746;19.678;2023-02-04T05:48:14;6.20;99.90
42979;DHT22;28616;44.746;19.678;2023-02-04T05:50:40;6.10;99.90
42979;DHT22;28616;44.746;19.678;2023-02-04T05:53:06;6.10;99.90
42979;DHT22;28616;44.746;19.678;2023-02-04T05:55:31;6.10;99.90
42979;DHT22;28616;44.746;19.678;2023-02-04T05:57:57;6.10;99.90
42979;DHT22;28616;44.746;19.678;2023-02-04T06:00:23;6.00;99.90
42979;DHT22;28616;44.746;19.678;2023-02-04T06:02:48;6.00;99.90
42979;DHT22;28616;44.746;19.678;2023-02-04T06:05:14;6.00;99.90
42979;DHT22;28616;44.746;19.678;2023-02-04T06:07:40;6.00;99.90
42979;DHT22;28616;44.746;19.678;2023-02-04T06:10:06;6.00;99.90
42979;DHT22;28616;44.746;19.678;2023-02-04T06:12:31;6.00;99.90
42979;DHT22;28616;44.746;19.678;2023-02-04T06:14:57;6.00;99.90
42979;DHT22;28616;44.746;19.678;2023-02-04T06:17:23;6.00;99.90
42979;DHT22;28616;44.746;19.678;2023-02-04T06:19:48;6.00;99.90
42979;DHT22;28616;44.746;19.678;2023-02-04T06:22:14;6.00;99.90
42979;DHT22;28616;44.746;19.678;2023-02-04T06:24:40;5.90;99.90
42979;DHT22;28616;44.746;19.678;2023-02-04T06:27:05;5.90;99.90
42979;DHT22;28616;44.746;19.678;2023-02-04T06:29:31;5.90;99.90
42979;DHT22;28616;44.746;19.678;2023-02-04T06:31:57;5.90;99.90
42979;DHT22;28616;44.746;19.678;2023-02-04T06:34:22;5.90;99.90
42979;DHT22;28616;44.746;19.678;2023-02-04T06:36:48;5.90;99.90
42979;DHT22;28616;44.746;19.678;2023-02-04T06:39:14;5.90;99.90
42979;DHT22;28616;44.746;19.678;2023-02-04T06:41:40;5.90;99.90
42979;DHT22;28616;44.746;19.678;2023-02-04T06:44:05;5.90;99.90
42979;DHT22;28616;44.746;19.678;2023-02-04T06:46:31;5.90;99.90
42979;DHT22;28616;44.746;19.678;2023-02-04T06:48:57;5.80;99.90
42979;DHT22;28616;44.746;19.678;2023-02-04T06:51:22;5.90;99.90
42979;DHT22;28616;44.746;19.678;2023-02-04T06:53:48;5.90;99.90
42979;DHT22;28616;44.746;19.678;2023-02-04T06:56:14;5.90;99.90
42979;DHT22;28616;44.746;19.678;2023-02-04T06:58:40;5.90;99.90
42979;DHT22;28616;44.746;19.678;2023-02-04T07:01:05;5.90;99.90
42979;DHT22;28616;44.746;19.678;2023-02-04T07:03:32;5.90;99.90
42979;DHT22;28616;44.746;19.678;2023-02-04T07:05:57;5.90;99.90
42979;DHT22;28616;44.746;19.678;2023-02-04T07:08:23;5.90;99.90
42979;DHT22;28616;44.746;19.678;2023-02-04T07:10:50;6.00;99.90
42979;DHT22;28616;44.746;19.678;2023-02-04T07:13:16;5.90;99.90
42979;DHT22;28616;44.746;19.678;2023-02-04T07:15:41;5.90;99.90
42979;DHT22;28616;44.746;19.678;2023-02-04T07:18:07;5.90;99.90
42979;DHT22;28616;44.746;19.678;2023-02-04T07:20:33;5.90;99.90
42979;DHT22;28616;44.746;19.678;2023-02-04T07:22:58;5.90;99.90
42979;DHT22;28616;44.746;19.678;2023-02-04T07:25:24;5.90;99.90
42979;DHT22;28616;44.746;19.678;2023-02-04T07:27:50;5.90;99.90
42979;DHT22;28616;44.746;19.678;2023-02-04T07:30:16;6.00;99.90
42979;DHT22;28616;44.746;19.678;2023-02-04T07:32:41;6.00;99.90
42979;DHT22;28616;44.746;19.678;2023-02-04T07:35:08;6.10;99.90
42979;DHT22;28616;44.746;19.678;2023-02-04T07:37:34;6.10;99.90
42979;DHT22;28616;44.746;19.678;2023-02-04T07:40:00;6.10;99.90
42979;DHT22;28616;44.746;19.678;2023-02-04T07:42:26;6.10;99.90
42979;DHT22;28616;44.746;19.678;2023-02-04T07:44:52;6.20;99.90
42979;DHT22;28616;44.746;19.678;2023-02-04T07:47:18;6.20;99.90
42979;DHT22;28616;44.746;19.678;2023-02-04T07:49:44;6.20;99.90
42979;DHT22;28616;44.746;19.678;2023-02-04T07:52:09;6.30;99.90
42979;DHT22;28616;44.746;19.678;2023-02-04T07:54:35;6.30;99.90
42979;DHT22;28616;44.746;19.678;2023-02-04T07:57:01;6.30;99.90
42979;DHT22;28616;44.746;19.678;2023-02-04T07:59:26;6.30;99.90
42979;DHT22;28616;44.746;19.678;2023-02-04T08:01:52;6.30;99.90
42979;DHT22;28616;44.746;19.678;2023-02-04T08:04:18;6.40;99.90
42979;DHT22;28616;44.746;19.678;2023-02-04T08:06:43;6.70;99.90
42979;DHT22;28616;44.746;19.678;2023-02-04T08:09:09;7.10;99.90
42979;DHT22;28616;44.746;19.678;2023-02-04T08:11:35;7.10;99.90
42979;DHT22;28616;44.746;19.678;2023-02-04T08:14:00;7.00;99.90
42979;DHT22;28616;44.746;19.678;2023-02-04T08:16:26;7.10;99.90
42979;DHT22;28616;44.746;19.678;2023-02-04T08:18:52;7.40;99.90
42979;DHT22;28616;44.746;19.678;2023-02-04T08:21:18;7.40;99.90
42979;DHT22;28616;44.746;19.678;2023-02-04T08:23:43;7.50;99.90
42979;DHT22;28616;44.746;19.678;2023-02-04T08:26:10;7.70;99.90
42979;DHT22;28616;44.746;19.678;2023-02-04T08:28:36;7.70;99.90
42979;DHT22;28616;44.746;19.678;2023-02-04T08:31:06;7.70;99.90
42979;DHT22;28616;44.746;19.678;2023-02-04T08:33:37;7.60;99.90
42979;DHT22;28616;44.746;19.678;2023-02-04T08:36:04;7.50;99.90
42979;DHT22;28616;44.746;19.678;2023-02-04T08:38:30;7.40;99.90
42979;DHT22;28616;44.746;19.678;2023-02-04T08:40:56;7.40;99.90
42979;DHT22;28616;44.746;19.678;2023-02-04T08:43:22;7.50;99.90
42979;DHT22;28616;44.746;19.678;2023-02-04T08:45:47;7.80;99.90
42979;DHT22;28616;44.746;19.678;2023-02-04T08:48:13;8.10;99.90
42979;DHT22;28616;44.746;19.678;2023-02-04T08:50:39;8.20;99.90
42979;DHT22;28616;44.746;19.678;2023-02-04T08:53:04;8.10;99.90
42979;DHT22;28616;44.746;19.678;2023-02-04T08:55:30;8.00;99.90
42979;DHT22;28616;44.746;19.678;2023-02-04T08:57:56;7.90;99.90
42979;DHT22;28616;44.746;19.678;2023-02-04T09:00:24;7.50;99.90
42979;DHT22;28616;44.746;19.678;2023-02-04T09:02:49;6.10;99.90
42979;DHT22;28616;44.746;19.678;2023-02-04T09:05:15;5.80;99.90
42979;DHT22;28616;44.746;19.678;2023-02-04T09:07:41;5.70;99.90
42979;DHT22;28616;44.746;19.678;2023-02-04T09:10:07;5.80;99.90
42979;DHT22;28616;44.746;19.678;2023-02-04T09:12:33;5.90;99.90
42979;DHT22;28616;44.746;19.678;2023-02-04T09:15:00;6.00;99.90
42979;DHT22;28616;44.746;19.678;2023-02-04T09:17:26;6.10;99.90
42979;DHT22;28616;44.746;19.678;2023-02-04T09:19:54;6.20;99.90
42979;DHT22;28616;44.746;19.678;2023-02-04T09:22:22;6.20;99.90
42979;DHT22;28616;44.746;19.678;2023-02-04T09:24:48;6.30;99.90
42979;DHT22;28616;44.746;19.678;2023-02-04T09:27:13;6.30;99.90
42979;DHT22;28616;44.746;19.678;2023-02-04T09:29:39;6.30;99.90
42979;DHT22;28616;44.746;19.678;2023-02-04T09:32:05;6.20;99.90
42979;DHT22;28616;44.746;19.678;2023-02-04T09:34:31;6.20;99.90
42979;DHT22;28616;44.746;19.678;2023-02-04T09:36:57;6.30;99.90
42979;DHT22;28616;44.746;19.678;2023-02-04T09:39:22;6.50;99.90
42979;DHT22;28616;44.746;19.678;2023-02-04T09:41:50;6.70;99.90
42979;DHT22;28616;44.746;19.678;2023-02-04T09:44:18;7.20;99.90
42979;DHT22;28616;44.746;19.678;2023-02-04T09:46:48;7.20;99.90
42979;DHT22;28616;44.746;19.678;2023-02-04T09:49:15;7.00;99.90
42979;DHT22;28616;44.746;19.678;2023-02-04T09:51:41;6.80;99.90
42979;DHT22;28616;44.746;19.678;2023-02-04T09:54:15;7.80;99.90
42979;DHT22;28616;44.746;19.678;2023-02-04T09:56:41;7.70;99.90
42979;DHT22;28616;44.746;19.678;2023-02-04T09:59:12;7.30;99.90
42979;DHT22;28616;44.746;19.678;2023-02-04T10:01:38;6.90;99.90
42979;DHT22;28616;44.746;19.678;2023-02-04T10:04:04;6.80;99.90
42979;DHT22;28616;44.746;19.678;2023-02-04T10:06:30;6.60;99.90
42979;DHT22;28616;44.746;19.678;2023-02-04T10:08:56;6.60;99.90
42979;DHT22;28616;44.746;19.678;2023-02-04T10:11:24;6.70;99.90
42979;DHT22;28616;44.746;19.678;2023-02-04T10:13:53;6.60;99.90
42979;DHT22;28616;44.746;19.678;2023-02-04T10:16:23;6.60;99.90
42979;DHT22;28616;44.746;19.678;2023-02-04T10:19:06;6.50;99.90
42979;DHT22;28616;44.746;19.678;2023-02-04T10:21:34;6.40;99.90
42979;DHT22;28616;44.746;19.678;2023-02-04T10:24:05;6.40;99.90
42979;DHT22;28616;44.746;19.678;2023-02-04T10:26:34;6.30;99.90
42979;DHT22;28616;44.746;19.678;2023-02-04T10:30:06;6.30;99.90
42979;DHT22;28616;44.746;19.678;2023-02-04T10:37:17;6.10;99.60
42979;DHT22;28616;44.746;19.678;2023-02-04T10:39:43;6.00;99.90
42979;DHT22;28616;44.746;19.678;2023-02-04T10:42:28;5.90;99.70
42979;DHT22;28616;44.746;19.678;2023-02-04T10:44:55;5.80;99.90
42979;DHT22;28616;44.746;19.678;2023-02-04T10:47:23;5.80;99.90
42979;DHT22;28616;44.746;19.678;2023-02-04T10:50:03;5.70;99.90
42979;DHT22;28616;44.746;19.678;2023-02-04T10:52:39;5.60;99.90
42979;DHT22;28616;44.746;19.678;2023-02-04T10:55:10;5.50;99.90
42979;DHT22;28616;44.746;19.678;2023-02-04T10:57:38;5.40;99.90
42979;DHT22;28616;44.746;19.678;2023-02-04T11:00:13;5.40;99.90
42979;DHT22;28616;44.746;19.678;2023-02-04T11:05:21;5.20;99.90
42979;DHT22;28616;44.746;19.678;2023-02-04T11:07:48;5.10;99.90
42979;DHT22;28616;44.746;19.678;2023-02-04T11:10:20;4.90;99.90
42979;DHT22;28616;44.746;19.678;2023-02-04T11:20:28;4.60;95.50
42979;DHT22;28616;44.746;19.678;2023-02-04T11:22:54;4.50;95.70
42979;DHT22;28616;44.746;19.678;2023-02-04T11:25:31;4.50;97.10
42979;DHT22;28616;44.746;19.678;2023-02-04T11:27:57;4.50;96.20
42979;DHT22;28616;44.746;19.678;2023-02-04T11:30:23;4.50;96.30
42979;DHT22;28616;44.746;19.678;2023-02-04T11:32:55;4.50;96.80
42979;DHT22;28616;44.746;19.678;2023-02-04T11:35:27;4.40;97.00
42979;DHT22;28616;44.746;19.678;2023-02-04T11:37:56;4.40;96.30
42979;DHT22;28616;44.746;19.678;2023-02-04T11:40:31;4.40;97.00
42979;DHT22;28616;44.746;19.678;2023-02-04T11:42:58;4.40;97.40
42979;DHT22;28616;44.746;19.678;2023-02-04T11:45:34;4.40;98.10
42979;DHT22;28616;44.746;19.678;2023-02-04T11:48:07;4.40;98.80
42979;DHT22;28616;44.746;19.678;2023-02-04T11:50:35;4.40;97.20
42979;DHT22;28616;44.746;19.678;2023-02-04T11:53:03;4.30;96.80
42979;DHT22;28616;44.746;19.678;2023-02-04T11:55:31;4.40;97.90
42979;DHT22;28616;44.746;19.678;2023-02-04T11:57:59;4.40;96.80
42979;DHT22;28616;44.746;19.678;2023-02-04T12:00:30;4.30;95.40
42979;DHT22;28616;44.746;19.678;2023-02-04T12:02:58;4.40;94.80
42979;DHT22;28616;44.746;19.678;2023-02-04T12:05:40;4.40;95.70
42979;DHT22;28616;44.746;19.678;2023-02-04T12:08:23;4.40;95.60
42979;DHT22;28616;44.746;19.678;2023-02-04T12:11:00;4.30;95.90
42979;DHT22;28616;44.746;19.678;2023-02-04T12:13:27;4.30;95.00
42979;DHT22;28616;44.746;19.678;2023-02-04T12:16:00;4.30;95.80
42979;DHT22;28616;44.746;19.678;2023-02-04T12:18:26;4.30;96.90
42979;DHT22;28616;44.746;19.678;2023-02-04T12:20:54;4.30;96.20
42979;DHT22;28616;44.746;19.678;2023-02-04T12:23:20;4.30;95.10
42979;DHT22;28616;44.746;19.678;2023-02-04T12:25:47;4.20;96.00
42979;DHT22;28616;44.746;19.678;2023-02-04T12:28:13;4.20;95.60
42979;DHT22;28616;44.746;19.678;2023-02-04T12:30:39;4.20;96.30
42979;DHT22;28616;44.746;19.678;2023-02-04T12:33:05;4.20;95.90
42979;DHT22;28616;44.746;19.678;2023-02-04T12:35:32;4.20;96.50
42979;DHT22;28616;44.746;19.678;2023-02-04T12:37:57;4.10;95.50
42979;DHT22;28616;44.746;19.678;2023-02-04T12:40:23;4.20;96.20
42979;DHT22;28616;44.746;19.678;2023-02-04T12:42:49;4.10;95.10
42979;DHT22;28616;44.746;19.678;2023-02-04T12:45:15;4.10;94.40
42979;DHT22;28616;44.746;19.678;2023-02-04T12:47:42;4.10;95.60
42979;DHT22;28616;44.746;19.678;2023-02-04T12:50:09;4.10;94.90
42979;DHT22;28616;44.746;19.678;2023-02-04T12:52:35;4.00;94.80
42979;DHT22;28616;44.746;19.678;2023-02-04T12:55:05;4.00;95.40
42979;DHT22;28616;44.746;19.678;2023-02-04T12:57:32;4.00;96.10
42979;DHT22;28616;44.746;19.678;2023-02-04T12:59:58;4.00;95.90
42979;DHT22;28616;44.746;19.678;2023-02-04T13:02:26;4.00;96.70
42979;DHT22;28616;44.746;19.678;2023-02-04T13:04:55;4.00;97.30
42979;DHT22;28616;44.746;19.678;2023-02-04T13:07:22;4.00;96.00
42979;DHT22;28616;44.746;19.678;2023-02-04T13:09:47;4.00;96.20
42979;DHT22;28616;44.746;19.678;2023-02-04T13:12:13;4.00;95.90
42979;DHT22;28616;44.746;19.678;2023-02-04T13:14:40;4.00;95.90
42979;DHT22;28616;44.746;19.678;2023-02-04T13:17:07;4.00;95.90
42979;DHT22;28616;44.746;19.678;2023-02-04T13:19:32;3.90;98.00
42979;DHT22;28616;44.746;19.678;2023-02-04T13:21:59;3.80;98.30
42979;DHT22;28616;44.746;19.678;2023-02-04T13:24:25;3.70;99.20
42979;DHT22;28616;44.746;19.678;2023-02-04T13:26:51;3.70;99.90
42979;DHT22;28616;44.746;19.678;2023-02-04T13:29:17;3.70;99.90
42979;DHT22;28616;44.746;19.678;2023-02-04T13:31:43;3.70;99.90
42979;DHT22;28616;44.746;19.678;2023-02-04T13:34:09;3.60;99.90
42979;DHT22;28616;44.746;19.678;2023-02-04T13:36:35;3.60;99.90
42979;DHT22;28616;44.746;19.678;2023-02-04T13:39:01;3.40;99.90
42979;DHT22;28616;44.746;19.678;2023-02-04T13:41:27;3.40;99.90
42979;DHT22;28616;44.746;19.678;2023-02-04T13:43:53;3.40;99.90
42979;DHT22;28616;44.746;19.678;2023-02-04T13:46:20;3.40;99.90
42979;DHT22;28616;44.746;19.678;2023-02-04T13:48:46;3.40;99.90
42979;DHT22;28616;44.746;19.678;2023-02-04T13:51:12;3.50;99.90
42979;DHT22;28616;44.746;19.678;2023-02-04T13:53:38;3.50;99.90
42979;DHT22;28616;44.746;19.678;2023-02-04T13:56:04;3.40;99.90
42979;DHT22;28616;44.746;19.678;2023-02-04T13:58:30;3.30;99.90
42979;DHT22;28616;44.746;19.678;2023-02-04T14:00:56;3.30;99.90
42979;DHT22;28616;44.746;19.678;2023-02-04T14:03:23;3.20;99.90
42979;DHT22;28616;44.746;19.678;2023-02-04T14:05:49;3.20;99.90
42979;DHT22;28616;44.746;19.678;2023-02-04T14:08:15;3.20;99.90
42979;DHT22;28616;44.746;19.678;2023-02-04T14:10:40;3.20;99.90
42979;DHT22;28616;44.746;19.678;2023-02-04T14:13:06;3.20;99.90
42979;DHT22;28616;44.746;19.678;2023-02-04T14:15:32;3.20;99.90
42979;DHT22;28616;44.746;19.678;2023-02-04T14:17:59;3.20;99.90
42979;DHT22;28616;44.746;19.678;2023-02-04T14:20:25;3.20;99.90
42979;DHT22;28616;44.746;19.678;2023-02-04T14:22:51;3.20;99.90
42979;DHT22;28616;44.746;19.678;2023-02-04T14:25:17;3.30;99.90
42979;DHT22;28616;44.746;19.678;2023-02-04T14:27:43;3.30;99.90
42979;DHT22;28616;44.746;19.678;2023-02-04T14:30:19;3.30;99.90
42979;DHT22;28616;44.746;19.678;2023-02-04T14:32:45;3.30;99.90
42979;DHT22;28616;44.746;19.678;2023-02-04T14:35:11;3.30;99.90
42979;DHT22;28616;44.746;19.678;2023-02-04T14:37:37;3.40;99.90
42979;DHT22;28616;44.746;19.678;2023-02-04T14:40:03;3.40;99.90
42979;DHT22;28616;44.746;19.678;2023-02-04T14:42:29;3.40;99.90
42979;DHT22;28616;44.746;19.678;2023-02-04T14:44:54;3.40;99.90
42979;DHT22;28616;44.746;19.678;2023-02-04T14:47:20;3.40;99.90
42979;DHT22;28616;44.746;19.678;2023-02-04T14:49:46;3.40;99.90
42979;DHT22;28616;44.746;19.678;2023-02-04T14:52:11;3.50;99.90
42979;DHT22;28616;44.746;19.678;2023-02-04T14:54:38;3.50;99.90
42979;DHT22;28616;44.746;19.678;2023-02-04T14:57:04;3.50;99.90
42979;DHT22;28616;44.746;19.678;2023-02-04T14:59:30;3.50;99.90
42979;DHT22;28616;44.746;19.678;2023-02-04T15:01:56;3.50;99.90
42979;DHT22;28616;44.746;19.678;2023-02-04T15:04:21;3.50;99.90
42979;DHT22;28616;44.746;19.678;2023-02-04T15:06:47;3.50;99.90
42979;DHT22;28616;44.746;19.678;2023-02-04T15:09:15;3.50;99.90
42979;DHT22;28616;44.746;19.678;2023-02-04T15:11:41;3.40;99.90
42979;DHT22;28616;44.746;19.678;2023-02-04T15:14:06;3.40;99.90
42979;DHT22;28616;44.746;19.678;2023-02-04T15:16:32;3.40;99.90
42979;DHT22;28616;44.746;19.678;2023-02-04T15:18:58;3.40;99.90
42979;DHT22;28616;44.746;19.678;2023-02-04T15:21:24;3.40;99.90
42979;DHT22;28616;44.746;19.678;2023-02-04T15:23:49;3.40;99.90
42979;DHT22;28616;44.746;19.678;2023-02-04T15:26:15;3.40;99.90
42979;DHT22;28616;44.746;19.678;2023-02-04T15:28:41;3.40;99.90
42979;DHT22;28616;44.746;19.678;2023-02-04T15:31:07;3.40;99.90
42979;DHT22;28616;44.746;19.678;2023-02-04T15:33:33;3.40;99.90
42979;DHT22;28616;44.746;19.678;2023-02-04T15:35:59;3.40;99.90
42979;DHT22;28616;44.746;19.678;2023-02-04T15:38:24;3.40;99.90
42979;DHT22;28616;44.746;19.678;2023-02-04T15:40:50;3.40;99.90
42979;DHT22;28616;44.746;19.678;2023-02-04T15:43:16;3.50;99.90
42979;DHT22;28616;44.746;19.678;2023-02-04T15:45:41;3.50;99.90